createdAt,value
2024-02-08T00:02:22.193Z,5.70
2024-02-08T00:04:50.796Z,7.35
2024-02-08T00:07:17.676Z,6.40
2024-02-08T00:09:44.117Z,7.55
2024-02-08T00:12:10.957Z,6.82
2024-02-08T00:14:37.320Z,4.90
2024-02-08T00:17:04.087Z,6.75
2024-02-08T00:19:30.528Z,5.90
2024-02-08T00:21:57.646Z,6.00
2024-02-08T00:24:24.079Z,7.10
2024-02-08T00:26:50.457Z,5.30
2024-02-08T00:29:18.349Z,5.57
2024-02-08T00:31:47.000Z,7.57
2024-02-08T00:34:13.549Z,6.20
2024-02-08T00:36:40.079Z,6.78
2024-02-08T00:39:08.345Z,6.35
2024-02-08T00:41:35.222Z,6.15
2024-02-08T00:44:01.854Z,5.45
2024-02-08T00:46:28.272Z,5.07
2024-02-08T00:48:55.491Z,7.63
2024-02-08T00:51:22.601Z,6.45
2024-02-08T00:53:49.256Z,6.88
2024-02-08T00:56:16.803Z,6.80
2024-02-08T00:58:43.588Z,5.25
2024-02-08T01:01:10.552Z,5.60
2024-02-08T01:03:37.041Z,5.10
2024-02-08T01:06:03.683Z,6.03
2024-02-08T01:08:30.099Z,5.10
2024-02-08T01:10:56.450Z,5.97
2024-02-08T01:13:23.172Z,4.50
2024-02-08T01:15:50.837Z,5.47
2024-02-08T01:18:19.479Z,7.03
2024-02-08T01:20:46.216Z,7.20
2024-02-08T01:23:12.775Z,6.88
2024-02-08T01:25:42.702Z,5.68
2024-02-08T01:28:09.440Z,6.63
2024-02-08T01:30:39.879Z,7.00
2024-02-08T01:33:12.478Z,5.85
2024-02-08T01:35:41.124Z,5.38
2024-02-08T01:38:08.611Z,6.22
2024-02-08T01:40:36.422Z,9.10
2024-02-08T01:43:03.061Z,6.15
2024-02-08T01:45:38.887Z,6.28
2024-02-08T01:48:06.668Z,6.40
2024-02-08T01:50:37.045Z,6.70
2024-02-08T01:53:04.128Z,5.70
2024-02-08T01:55:34.876Z,6.30
2024-02-08T01:58:08.223Z,6.07
2024-02-08T02:00:39.648Z,6.38
2024-02-08T02:03:12.474Z,6.72
2024-02-08T02:05:44.220Z,6.68
2024-02-08T02:08:12.086Z,7.18
2024-02-08T02:10:39.994Z,6.57
2024-02-08T02:13:10.031Z,7.07
2024-02-08T02:15:38.924Z,6.40
2024-02-08T02:18:08.877Z,13.77
2024-02-08T02:20:35.253Z,6.32
2024-02-08T02:23:02.027Z,6.90
2024-02-08T02:25:29.247Z,6.97
2024-02-08T02:28:04.608Z,7.30
2024-02-08T02:30:31.034Z,6.20
2024-02-08T02:33:01.337Z,8.25
2024-02-08T02:35:30.018Z,6.63
2024-02-08T02:37:59.997Z,6.28
2024-02-08T02:40:26.363Z,7.32
2024-02-08T02:42:53.251Z,6.32
2024-02-08T02:45:30.155Z,6.70
2024-02-08T02:47:57.488Z,6.80
2024-02-08T02:50:24.370Z,8.43
2024-02-08T02:52:51.396Z,6.40
2024-02-08T02:55:18.722Z,6.18
2024-02-08T02:57:45.565Z,6.50
2024-02-08T03:00:34.759Z,8.85
2024-02-08T03:03:08.661Z,7.38
2024-02-08T03:05:35.948Z,7.05
2024-02-08T03:08:06.427Z,7.50
2024-02-08T03:10:35.727Z,9.10
2024-02-08T03:13:02.249Z,6.78
2024-02-08T03:15:28.730Z,6.35
2024-02-08T03:17:55.149Z,7.85
2024-02-08T03:20:33.810Z,8.98
2024-02-08T03:23:00.418Z,8.77
2024-02-08T03:25:27.275Z,8.02
2024-02-08T03:27:54.093Z,7.40
2024-02-08T03:30:21.450Z,6.10
2024-02-08T03:32:48.434Z,7.63
2024-02-08T03:35:15.002Z,7.07
2024-02-08T03:37:46.466Z,7.50
2024-02-08T03:40:12.970Z,7.45
2024-02-08T03:42:40.915Z,6.57
2024-02-08T03:45:08.256Z,6.82
2024-02-08T03:47:34.695Z,7.40
2024-02-08T03:50:01.217Z,6.85
2024-02-08T03:52:31.821Z,8.32
2024-02-08T03:54:58.461Z,7.72
2024-02-08T03:57:25.115Z,7.00
2024-02-08T03:59:53.680Z,7.03
2024-02-08T04:02:23.127Z,7.35
2024-02-08T04:05:01.263Z,5.95
2024-02-08T04:07:46.740Z,8.07
2024-02-08T04:10:32.303Z,7.22
2024-02-08T04:13:17.555Z,6.65
2024-02-08T04:16:02.483Z,6.90
2024-02-08T04:18:47.657Z,6.97
2024-02-08T04:21:32.969Z,6.28
2024-02-08T04:24:18.015Z,7.72
2024-02-08T04:27:03.470Z,6.78
2024-02-08T04:29:48.394Z,7.43
2024-02-08T04:32:33.717Z,7.68
2024-02-08T04:35:18.979Z,6.63
2024-02-08T04:38:04.282Z,6.78
2024-02-08T04:40:49.459Z,8.85
2024-02-08T04:43:34.753Z,6.97
2024-02-08T04:46:19.997Z,5.88
2024-02-08T04:49:04.887Z,7.00
2024-02-08T04:51:50.141Z,6.82
2024-02-08T04:54:18.228Z,7.25
2024-02-08T04:56:48.127Z,7.32
2024-02-08T04:59:22.243Z,7.78
2024-02-08T05:01:50.550Z,8.70
2024-02-08T05:04:20.471Z,6.82
2024-02-08T05:06:47.185Z,11.25
2024-02-08T05:09:17.313Z,6.95
2024-02-08T05:11:44.719Z,9.02
2024-02-08T05:14:11.140Z,6.85
2024-02-08T05:16:41.091Z,7.85
2024-02-08T05:19:10.755Z,7.00
2024-02-08T05:21:42.231Z,8.05
2024-02-08T05:24:09.285Z,8.23
2024-02-08T05:26:36.776Z,8.30
2024-02-08T05:29:03.184Z,7.45
2024-02-08T05:31:31.243Z,8.18
2024-02-08T05:33:58.435Z,8.98
2024-02-08T05:36:25.218Z,9.30
2024-02-08T05:38:57.747Z,7.90
2024-02-08T05:41:24.444Z,8.07
2024-02-08T05:43:53.149Z,10.07
2024-02-08T05:46:26.790Z,8.43
2024-02-08T05:48:53.743Z,9.68
2024-02-08T05:51:22.256Z,8.77
2024-02-08T05:53:49.257Z,8.95
2024-02-08T05:56:34.761Z,11.25
2024-02-08T05:59:02.704Z,8.48
2024-02-08T06:01:33.403Z,9.00
2024-02-08T06:04:03.198Z,10.40
2024-02-08T06:06:39.054Z,9.93
2024-02-08T06:09:17.381Z,11.30
2024-02-08T06:11:44.900Z,11.27
2024-02-08T06:14:18.972Z,11.90
2024-02-08T06:16:48.130Z,10.27
2024-02-08T06:19:19.252Z,10.07
2024-02-08T06:21:47.212Z,9.27
2024-02-08T06:24:29.601Z,12.50
2024-02-08T06:27:02.964Z,9.10
2024-02-08T06:29:43.584Z,10.90
2024-02-08T06:32:28.846Z,9.13
2024-02-08T06:35:13.031Z,9.20
2024-02-08T06:37:45.673Z,11.32
2024-02-08T06:40:44.560Z,12.23
2024-02-08T06:43:26.450Z,11.63
2024-02-08T06:45:53.715Z,10.55
2024-02-08T06:48:41.079Z,10.90
2024-02-08T06:51:26.924Z,11.90
2024-02-08T06:54:12.085Z,10.10
2024-02-08T06:56:57.487Z,11.68
2024-02-08T06:59:43.256Z,10.38
2024-02-08T07:02:28.895Z,12.10
2024-02-08T07:05:14.234Z,11.27
2024-02-08T07:08:07.578Z,10.85
2024-02-08T07:10:52.668Z,13.10
2024-02-08T07:13:37.840Z,12.98
2024-02-08T07:16:40.217Z,12.40
2024-02-08T07:19:25.425Z,14.50
2024-02-08T07:22:10.417Z,14.10
2024-02-08T07:24:59.562Z,13.25
2024-02-08T07:27:45.963Z,15.30
2024-02-08T07:30:31.260Z,13.90
2024-02-08T07:33:16.147Z,14.98
2024-02-08T07:36:01.553Z,12.65
2024-02-08T07:38:46.662Z,13.60
2024-02-08T07:41:13.597Z,14.82
2024-02-08T07:43:45.066Z,15.02
2024-02-08T07:46:17.843Z,15.10
2024-02-08T07:48:45.306Z,12.73
2024-02-08T07:51:17.043Z,15.38
2024-02-08T07:53:52.514Z,14.60
2024-02-08T07:56:26.172Z,13.73
2024-02-08T07:58:53.753Z,12.43
2024-02-08T08:01:20.282Z,13.00
2024-02-08T08:03:46.976Z,12.70
2024-02-08T08:06:16.398Z,14.60
2024-02-08T08:08:58.770Z,13.98
2024-02-08T08:11:32.422Z,12.65
2024-02-08T08:13:58.943Z,15.77
2024-02-08T08:16:31.973Z,20.30
2024-02-08T08:19:12.272Z,19.25
2024-02-08T08:22:04.498Z,17.13
2024-02-08T08:24:31.610Z,17.90
2024-02-08T08:27:08.397Z,15.65
2024-02-08T08:29:45.210Z,17.55
2024-02-08T08:32:31.160Z,17.13
2024-02-08T08:35:19.784Z,18.43
2024-02-08T08:37:46.361Z,18.33
2024-02-08T08:40:22.552Z,15.82
2024-02-08T08:45:22.120Z,17.95
2024-02-08T08:48:02.064Z,16.10
2024-02-08T08:50:34.960Z,19.85
2024-02-08T08:53:18.067Z,18.23
2024-02-08T08:55:50.883Z,18.40
2024-02-08T08:58:18.075Z,21.23
2024-02-08T09:00:48.532Z,17.73
2024-02-08T09:03:28.094Z,17.50
2024-02-08T09:05:58.313Z,17.15
2024-02-08T09:08:26.720Z,18.35
2024-02-08T09:10:53.279Z,21.52
2024-02-08T09:13:20.043Z,17.63
2024-02-08T09:15:56.783Z,19.02
2024-02-08T09:18:43.913Z,19.25
2024-02-08T09:21:15.031Z,17.88
2024-02-08T09:23:41.463Z,19.55
2024-02-08T09:26:12.910Z,17.75
2024-02-08T09:28:43.966Z,19.42
2024-02-08T09:31:19.481Z,15.15
2024-02-08T09:33:47.372Z,14.90
2024-02-08T09:36:17.600Z,14.30
2024-02-08T09:38:45.869Z,16.15
2024-02-08T09:41:26.674Z,14.75
2024-02-08T09:44:00.128Z,17.58
2024-02-08T09:46:34.817Z,13.75
2024-02-08T09:49:20.685Z,13.70
2024-02-08T09:51:55.348Z,14.95
2024-02-08T09:54:31.057Z,13.10
2024-02-08T09:56:57.803Z,13.23
2024-02-08T09:59:43.668Z,11.85
2024-02-08T10:02:34.774Z,14.57
2024-02-08T10:05:20.599Z,13.13
2024-02-08T10:08:03.563Z,10.95
2024-02-08T10:10:30.462Z,12.13
2024-02-08T10:13:06.817Z,12.15
2024-02-08T10:18:10.377Z,13.63
2024-02-08T10:20:46.896Z,9.95
2024-02-08T10:23:37.201Z,12.65
2024-02-08T10:26:21.090Z,13.40
2024-02-08T10:28:57.179Z,11.30
2024-02-08T10:31:27.014Z,9.70
2024-02-08T10:34:11.221Z,11.50
2024-02-08T10:36:41.122Z,10.43
2024-02-08T10:39:25.634Z,10.02
2024-02-08T10:41:59.468Z,9.60
2024-02-08T10:44:30.211Z,9.85
2024-02-08T10:47:06.333Z,9.88
2024-02-08T10:49:44.328Z,10.52
2024-02-08T10:52:13.618Z,11.23
2024-02-08T10:54:44.931Z,11.18
2024-02-08T10:57:31.878Z,10.35
2024-02-08T11:00:02.744Z,14.77
2024-02-08T11:02:50.024Z,13.48
2024-02-08T11:05:36.164Z,24.15
2024-02-08T11:08:08.902Z,15.75
2024-02-08T11:10:35.653Z,13.77
2024-02-08T11:13:12.213Z,9.00
2024-02-08T11:15:43.913Z,13.52
2024-02-08T11:18:30.488Z,10.82
2024-02-08T11:21:05.443Z,14.65
2024-02-08T11:23:33.278Z,13.48
2024-02-08T11:26:07.628Z,9.63
2024-02-08T11:28:45.783Z,7.03
2024-02-08T11:31:13.846Z,6.65
2024-02-08T11:33:42.057Z,5.85
2024-02-08T11:36:16.113Z,7.38
2024-02-08T11:38:59.299Z,7.28
2024-02-08T11:41:29.353Z,6.82
2024-02-08T11:44:04.555Z,7.18
2024-02-08T11:46:39.219Z,8.52
2024-02-08T11:49:16.687Z,7.20
2024-02-08T11:51:46.938Z,7.15
2024-02-08T11:54:23.779Z,6.03
2024-02-08T11:56:51.258Z,7.22
2024-02-08T11:59:17.761Z,9.38
2024-02-08T12:01:45.436Z,7.57
2024-02-08T12:04:13.716Z,6.47
2024-02-08T12:06:47.497Z,9.48
2024-02-08T12:09:23.540Z,7.63
2024-02-08T12:11:52.800Z,7.35
2024-02-08T12:14:26.587Z,6.25
2024-02-08T12:17:00.497Z,7.28
2024-02-08T12:19:29.703Z,5.65
2024-02-08T12:22:00.222Z,8.38
2024-02-08T12:24:27.551Z,7.32
2024-02-08T12:26:56.077Z,5.20
2024-02-08T12:29:25.958Z,7.38
2024-02-08T12:31:56.133Z,6.63
2024-02-08T12:34:32.988Z,6.85
2024-02-08T12:37:06.422Z,3.88
2024-02-08T12:39:39.486Z,4.35
2024-02-08T12:42:06.402Z,5.43
2024-02-08T12:44:35.967Z,5.85
2024-02-08T12:47:02.648Z,5.18
2024-02-08T12:49:29.206Z,4.20
2024-02-08T12:52:01.621Z,6.30
2024-02-08T12:54:28.174Z,5.68
2024-02-08T12:57:11.962Z,5.63
2024-02-08T12:59:39.952Z,5.15
2024-02-08T13:02:19.572Z,10.15
2024-02-08T13:04:48.315Z,5.07
2024-02-08T13:07:19.101Z,4.68
2024-02-08T13:09:46.567Z,5.80
2024-02-08T13:12:20.684Z,6.20
2024-02-08T13:14:50.322Z,4.57
2024-02-08T13:17:20.052Z,6.43
2024-02-08T13:19:47.498Z,5.18
2024-02-08T13:22:14.024Z,5.22
2024-02-08T13:24:40.467Z,4.25
2024-02-08T13:27:06.941Z,4.28
2024-02-08T13:29:36.180Z,5.15
2024-02-08T13:32:02.745Z,4.55
2024-02-08T13:34:29.603Z,5.30
2024-02-08T13:37:00.148Z,4.40
2024-02-08T13:39:26.738Z,5.55
2024-02-08T13:41:53.177Z,4.47
2024-02-08T13:44:25.583Z,5.28
2024-02-08T13:46:52.903Z,4.22
2024-02-08T13:49:25.832Z,4.65
2024-02-08T13:51:52.792Z,4.90
2024-02-08T13:54:19.829Z,4.40
2024-02-08T13:56:46.225Z,5.20
2024-02-08T13:59:15.991Z,4.00
2024-02-08T14:01:46.197Z,5.72
2024-02-08T14:04:22.130Z,4.43
2024-02-08T14:06:58.082Z,5.32
2024-02-08T14:09:26.541Z,3.75
2024-02-08T14:11:56.823Z,7.32
2024-02-08T14:14:41.940Z,4.68
2024-02-08T14:17:12.169Z,6.85
2024-02-08T14:19:38.965Z,4.28
2024-02-08T14:22:08.777Z,4.78
2024-02-08T14:24:40.458Z,4.60
2024-02-08T14:27:07.031Z,5.00
2024-02-08T14:29:39.725Z,4.65
2024-02-08T14:32:13.079Z,6.05
2024-02-08T14:34:44.867Z,5.82
2024-02-08T14:37:11.768Z,5.90
2024-02-08T14:39:38.329Z,5.13
2024-02-08T14:42:12.150Z,5.10
2024-02-08T14:44:46.198Z,3.83
2024-02-08T14:47:23.120Z,5.10
2024-02-08T14:49:57.251Z,5.10
2024-02-08T14:52:28.242Z,4.97
2024-02-08T14:55:00.276Z,4.30
2024-02-08T14:57:27.715Z,5.30
2024-02-08T15:00:14.050Z,5.75
2024-02-08T15:02:45.219Z,5.18
2024-02-08T15:05:13.328Z,3.35
2024-02-08T15:07:49.876Z,5.28
2024-02-08T15:10:22.341Z,3.78
2024-02-08T15:12:54.079Z,5.90
2024-02-08T15:15:31.364Z,4.57
2024-02-08T15:18:15.078Z,4.63
2024-02-08T15:20:47.244Z,5.57
2024-02-08T15:23:33.460Z,3.83
2024-02-08T15:26:03.966Z,3.63
2024-02-08T15:28:37.127Z,3.78
2024-02-08T15:31:15.536Z,4.32
2024-02-08T15:34:08.862Z,5.78
2024-02-08T15:36:54.490Z,5.90
2024-02-08T15:39:36.793Z,4.47
2024-02-08T15:42:10.432Z,5.50
2024-02-08T15:44:43.892Z,5.35
2024-02-08T15:47:14.094Z,4.82
2024-02-08T15:49:43.738Z,4.07
2024-02-08T15:52:17.458Z,3.60
2024-02-08T15:54:45.925Z,4.45
2024-02-08T15:57:14.835Z,4.88
2024-02-08T15:59:47.520Z,5.25
2024-02-08T16:02:19.544Z,3.67
2024-02-08T16:04:52.323Z,6.03
2024-02-08T16:07:29.313Z,4.40
2024-02-08T16:09:59.494Z,5.20
2024-02-08T16:12:32.347Z,4.30
2024-02-08T16:15:05.946Z,4.10
2024-02-08T16:17:40.123Z,4.20
2024-02-08T16:20:16.988Z,3.78
2024-02-08T16:22:54.014Z,4.75
2024-02-08T16:25:39.942Z,5.63
2024-02-08T16:28:17.488Z,3.30
2024-02-08T16:31:01.571Z,8.07
2024-02-08T16:33:35.383Z,4.60
2024-02-08T16:36:22.640Z,3.05
2024-02-08T16:39:09.110Z,5.30
2024-02-08T16:44:05.524Z,5.75
2024-02-08T16:46:38.436Z,7.00
2024-02-08T16:49:05.979Z,4.50
2024-02-08T16:51:39.502Z,3.58
2024-02-08T16:54:18.856Z,5.28
2024-02-08T16:56:47.033Z,5.22
2024-02-08T16:59:28.577Z,6.30
2024-02-08T17:02:05.839Z,4.20
2024-02-08T17:04:41.855Z,4.90
2024-02-08T17:07:25.789Z,8.35
2024-02-08T17:10:07.456Z,5.43
2024-02-08T17:12:47.057Z,4.10
2024-02-08T17:15:28.394Z,5.00
2024-02-08T17:18:07.621Z,5.50
2024-02-08T17:20:56.022Z,7.45
2024-02-08T17:23:29.251Z,6.88
2024-02-08T17:26:16.382Z,5.18
2024-02-08T17:29:08.291Z,6.63
2024-02-08T17:31:36.995Z,5.20
2024-02-08T17:34:10.733Z,6.03
2024-02-08T17:36:44.788Z,6.72
2024-02-08T17:39:25.872Z,4.50
2024-02-08T17:41:52.886Z,4.32
2024-02-08T17:44:20.361Z,8.05
2024-02-08T17:46:48.109Z,4.90
2024-02-08T17:49:20.847Z,6.70
2024-02-08T17:51:50.923Z,6.55
2024-02-08T17:54:32.985Z,6.63
2024-02-08T17:57:03.410Z,4.95
2024-02-08T17:59:30.523Z,5.13
2024-02-08T18:02:02.507Z,8.07
2024-02-08T18:04:31.231Z,8.10
2024-02-08T18:07:12.896Z,5.38
2024-02-08T18:09:41.474Z,6.50
2024-02-08T18:12:14.137Z,7.28
2024-02-08T18:14:41.714Z,9.07
2024-02-08T18:17:15.790Z,7.80
2024-02-08T18:19:43.569Z,10.70
2024-02-08T18:22:10.104Z,7.65
2024-02-08T18:24:36.626Z,6.55
2024-02-08T18:27:03.778Z,5.40
2024-02-08T18:29:34.115Z,7.47
2024-02-08T18:32:00.544Z,6.45
2024-02-08T18:34:29.961Z,8.23
2024-02-08T18:36:59.086Z,9.20
2024-02-08T18:39:28.570Z,8.77
2024-02-08T18:41:59.824Z,4.13
2024-02-08T18:44:26.457Z,8.27
2024-02-08T18:46:55.061Z,5.63
2024-02-08T18:49:23.109Z,6.75
2024-02-08T18:51:50.057Z,6.60
2024-02-08T18:54:31.540Z,6.65
2024-02-08T18:57:04.829Z,7.43
2024-02-08T18:59:34.102Z,5.53
2024-02-08T19:02:08.214Z,6.40
2024-02-08T19:04:36.490Z,7.28
2024-02-08T19:07:06.463Z,6.20
2024-02-08T19:09:34.497Z,5.65
2024-02-08T19:12:01.237Z,7.43
2024-02-08T19:14:28.055Z,7.38
2024-02-08T19:16:54.572Z,7.80
2024-02-08T19:19:24.293Z,9.07
2024-02-08T19:21:52.050Z,6.35
2024-02-08T19:24:19.004Z,9.60
2024-02-08T19:26:45.534Z,6.10
2024-02-08T19:29:19.005Z,5.75
2024-02-08T19:31:47.591Z,7.28
2024-02-08T19:34:22.630Z,7.85
2024-02-08T19:36:53.299Z,6.82
2024-02-08T19:39:29.154Z,6.40
2024-02-08T19:41:56.673Z,7.13
2024-02-08T19:44:27.179Z,7.30
2024-02-08T19:47:08.573Z,8.32
2024-02-08T19:49:36.497Z,7.57
2024-02-08T19:52:08.269Z,7.45
2024-02-08T19:54:42.767Z,5.75
2024-02-08T19:57:13.835Z,6.68
2024-02-08T19:59:40.934Z,8.43
2024-02-08T20:02:08.243Z,6.07
2024-02-08T20:04:39.639Z,6.72
2024-02-08T20:07:12.500Z,11.02
2024-02-08T20:09:44.016Z,9.52
2024-02-08T20:12:16.025Z,10.13
2024-02-08T20:14:44.612Z,5.40
2024-02-08T20:17:11.260Z,8.27
2024-02-08T20:19:42.864Z,8.95
2024-02-08T20:22:20.701Z,7.03
2024-02-08T20:24:48.702Z,9.10
2024-02-08T20:27:15.795Z,9.25
2024-02-08T20:29:45.918Z,6.93
2024-02-08T20:32:12.799Z,6.20
2024-02-08T20:34:40.726Z,7.13
2024-02-08T20:37:14.915Z,7.90
2024-02-08T20:39:46.245Z,7.13
2024-02-08T20:42:13.605Z,6.50
2024-02-08T20:44:44.890Z,10.43
2024-02-08T20:47:14.449Z,9.90
2024-02-08T20:49:42.089Z,9.13
2024-02-08T20:52:13.828Z,5.50
2024-02-08T20:54:41.787Z,10.60
2024-02-08T20:57:19.021Z,9.80
2024-02-08T20:59:47.721Z,7.28
2024-02-08T21:02:16.666Z,8.20
2024-02-08T21:04:50.455Z,7.85
2024-02-08T21:07:21.798Z,6.00
2024-02-08T21:09:51.953Z,6.72
2024-02-08T21:12:21.346Z,6.75
2024-02-08T21:14:48.124Z,7.15
2024-02-08T21:17:16.487Z,9.77
2024-02-08T21:19:48.832Z,7.40
2024-02-08T21:22:16.652Z,7.72
2024-02-08T21:24:43.308Z,8.38
2024-02-08T21:27:17.919Z,9.60
2024-02-08T21:29:46.066Z,9.10
2024-02-08T21:32:12.705Z,6.43
2024-02-08T21:34:39.250Z,5.22
2024-02-08T21:37:08.014Z,6.10
2024-02-08T21:39:35.378Z,6.07
2024-02-08T21:42:07.448Z,5.53
2024-02-08T21:44:34.863Z,6.63
2024-02-08T21:47:01.804Z,5.65
2024-02-08T21:49:28.314Z,8.60
2024-02-08T21:51:57.959Z,6.75
2024-02-08T21:54:27.186Z,5.25
2024-02-08T21:56:54.592Z,8.45
2024-02-08T21:59:20.935Z,8.40
2024-02-08T22:01:48.103Z,7.30
2024-02-08T22:04:14.496Z,5.47
2024-02-08T22:06:41.247Z,7.78
2024-02-08T22:09:11.538Z,5.82
2024-02-08T22:12:05.147Z,6.10
2024-02-08T22:14:32.009Z,7.22
2024-02-08T22:17:01.974Z,8.18
2024-02-08T22:19:36.452Z,4.90
2024-02-08T22:22:02.969Z,7.93
2024-02-08T22:24:29.501Z,6.47
2024-02-08T22:26:57.708Z,6.28
2024-02-08T22:29:25.835Z,6.43
2024-02-08T22:31:53.105Z,6.50
2024-02-08T22:34:20.162Z,7.10
2024-02-08T22:36:46.638Z,5.47
2024-02-08T22:39:16.068Z,6.72
2024-02-08T22:41:48.915Z,6.18
2024-02-08T22:44:15.606Z,5.30
2024-02-08T22:46:45.358Z,5.43
2024-02-08T22:49:13.556Z,5.75
2024-02-08T22:51:42.734Z,6.63
2024-02-08T22:54:09.517Z,5.05
2024-02-08T22:56:36.772Z,3.83
2024-02-08T22:59:04.385Z,6.55
2024-02-08T23:01:38.506Z,7.22
2024-02-08T23:04:07.236Z,4.25
2024-02-08T23:06:36.492Z,5.03
2024-02-08T23:09:09.540Z,4.88
2024-02-08T23:11:36.728Z,5.03
2024-02-08T23:14:03.558Z,5.10
2024-02-08T23:16:32.505Z,7.03
2024-02-08T23:19:02.095Z,5.28
2024-02-08T23:21:29.708Z,5.25
2024-02-08T23:23:56.315Z,3.88
2024-02-08T23:26:22.980Z,5.93
2024-02-08T23:28:50.123Z,4.10
2024-02-08T23:31:18.751Z,5.00
2024-02-08T23:33:45.346Z,3.45
2024-02-08T23:36:11.809Z,5.13
2024-02-08T23:38:40.605Z,6.05
2024-02-08T23:41:07.723Z,4.50
2024-02-08T23:43:35.037Z,5.10
2024-02-08T23:46:05.135Z,3.60
2024-02-08T23:48:31.772Z,5.72
2024-02-08T23:50:58.350Z,5.45
2024-02-08T23:53:28.378Z,5.95
2024-02-08T23:55:55.887Z,4.65
2024-02-08T23:58:28.896Z,5.80
